createdAt,value
2023-03-16T00:00:21.621Z,101054.66
2023-03-16T00:02:49.052Z,101050.25
2023-03-16T00:05:16.953Z,101056.28
2023-03-16T00:07:44.418Z,101055.75
2023-03-16T00:10:13.620Z,101044.31
2023-03-16T00:12:43.794Z,101042.63
2023-03-16T00:15:12.650Z,101049.63
2023-03-16T00:17:40.337Z,101053.16
2023-03-16T00:20:08.256Z,101048.91
2023-03-16T00:22:35.716Z,101061.06
2023-03-16T00:25:04.867Z,101065.53
2023-03-16T00:27:32.214Z,101066.47
2023-03-16T00:29:59.681Z,101063.09
2023-03-16T00:32:33.110Z,101062.06
2023-03-16T00:35:04.504Z,101066.53
2023-03-16T00:37:37.101Z,101075.34
2023-03-16T00:40:07.904Z,101070.91
2023-03-16T00:42:35.299Z,101070.75
2023-03-16T00:45:02.791Z,101072.72
2023-03-16T00:47:33.077Z,101071.72
2023-03-16T00:50:01.674Z,101077.97
2023-03-16T00:52:30.289Z,101074.72
2023-03-16T00:54:58.607Z,101075.81
2023-03-16T00:57:28.809Z,101070.63
2023-03-16T00:59:56.350Z,101081.03
2023-03-16T01:02:24.813Z,101077.59
2023-03-16T01:04:54.794Z,101072.50
2023-03-16T01:07:22.633Z,101068.06
2023-03-16T01:09:51.413Z,101060.22
2023-03-16T01:12:19.796Z,101065.38
2023-03-16T01:14:47.880Z,101065.34
2023-03-16T01:17:17.461Z,101051.38
2023-03-16T01:19:46.108Z,101056.50
2023-03-16T01:22:14.624Z,101051.25
2023-03-16T01:24:45.307Z,101055.59
2023-03-16T01:27:14.187Z,101051.78
2023-03-16T01:29:43.776Z,101049.03
2023-03-16T01:32:12.314Z,101049.94
2023-03-16T01:34:40.105Z,101045.53
2023-03-16T01:37:07.802Z,101049.38
2023-03-16T01:39:49.160Z,101048.41
2023-03-16T01:42:16.630Z,101044.22
2023-03-16T01:44:55.248Z,101055.59
2023-03-16T01:47:25.096Z,101041.47
2023-03-16T01:49:56.188Z,101047.66
2023-03-16T01:52:33.595Z,101045.91
2023-03-16T01:55:06.212Z,101050.16
2023-03-16T01:57:40.009Z,101044.72
2023-03-16T02:00:23.628Z,101039.63
2023-03-16T02:03:15.315Z,101033.63
2023-03-16T02:06:18.342Z,101048.06
2023-03-16T02:08:55.438Z,101044.66
2023-03-16T02:11:23.728Z,101040.16
2023-03-16T02:14:10.582Z,101045.72
2023-03-16T02:16:39.294Z,101045.75
2023-03-16T02:19:16.960Z,101043.09
2023-03-16T02:22:06.535Z,101047.34
2023-03-16T02:24:36.209Z,101042.94
2023-03-16T02:27:18.716Z,101046.31
2023-03-16T02:30:11.795Z,101049.72
2023-03-16T02:32:53.409Z,101035.00
2023-03-16T02:35:22.522Z,101040.97
2023-03-16T02:37:52.656Z,101038.50
2023-03-16T02:40:28.895Z,101044.47
2023-03-16T02:42:58.315Z,101048.84
2023-03-16T02:45:29.338Z,101047.91
2023-03-16T02:47:58.912Z,101050.59
2023-03-16T02:50:26.588Z,101054.00
2023-03-16T02:52:54.155Z,101054.00
2023-03-16T02:55:22.218Z,101059.13
2023-03-16T02:57:49.602Z,101064.59
2023-03-16T03:00:19.322Z,101056.69
2023-03-16T03:02:50.290Z,101056.72
2023-03-16T03:05:17.777Z,101053.91
2023-03-16T03:07:45.312Z,101052.09
2023-03-16T03:10:13.797Z,101057.25
2023-03-16T03:12:41.231Z,101062.81
2023-03-16T03:15:10.451Z,101062.81
2023-03-16T03:17:49.495Z,101065.47
2023-03-16T03:20:18.210Z,101057.53
2023-03-16T03:22:49.416Z,101061.03
2023-03-16T03:25:18.681Z,101061.00
2023-03-16T03:27:48.186Z,101065.63
2023-03-16T03:30:24.668Z,101066.47
2023-03-16T03:32:55.104Z,101068.28
2023-03-16T03:35:23.196Z,101070.78
2023-03-16T03:37:51.368Z,101070.88
2023-03-16T03:40:20.865Z,101073.22
2023-03-16T03:42:57.634Z,101071.66
2023-03-16T03:45:26.357Z,101083.66
2023-03-16T03:47:55.332Z,101082.84
2023-03-16T03:50:23.748Z,101089.22
2023-03-16T03:53:14.372Z,101088.00
2023-03-16T03:56:05.347Z,101091.47
2023-03-16T03:58:32.981Z,101094.28
2023-03-16T04:01:01.267Z,101103.25
2023-03-16T04:03:31.285Z,101102.38
2023-03-16T04:05:58.843Z,101110.19
2023-03-16T04:08:26.260Z,101108.41
2023-03-16T04:10:54.175Z,101111.00
2023-03-16T04:13:22.857Z,101112.63
2023-03-16T04:15:57.216Z,101114.63
2023-03-16T04:18:28.203Z,101128.44
2023-03-16T04:20:55.979Z,101119.81
2023-03-16T04:23:25.250Z,101126.16
2023-03-16T04:25:54.854Z,101132.16
2023-03-16T04:28:23.001Z,101133.81
2023-03-16T04:30:56.769Z,101134.28
2023-03-16T04:33:32.370Z,101135.97
2023-03-16T04:36:02.549Z,101133.63
2023-03-16T04:38:33.762Z,101143.09
2023-03-16T04:41:04.002Z,101137.31
2023-03-16T04:43:35.589Z,101143.97
2023-03-16T04:46:12.795Z,101151.75
2023-03-16T04:48:40.666Z,101151.16
2023-03-16T04:51:09.236Z,101146.91
2023-03-16T04:53:40.174Z,101158.78
2023-03-16T04:56:19.858Z,101156.22
2023-03-16T04:58:52.946Z,101150.66
2023-03-16T05:01:23.711Z,101143.53
2023-03-16T05:03:54.782Z,101139.00
2023-03-16T05:06:22.453Z,101145.75
2023-03-16T05:08:50.194Z,101153.25
2023-03-16T05:11:17.936Z,101152.47
2023-03-16T05:13:55.596Z,101155.63
2023-03-16T05:16:24.052Z,101165.72
2023-03-16T05:18:52.995Z,101161.94
2023-03-16T05:21:20.629Z,101165.41
2023-03-16T05:23:55.529Z,101174.13
2023-03-16T05:26:23.122Z,101164.84
2023-03-16T05:28:52.094Z,101177.47
2023-03-16T05:31:23.818Z,101175.75
2023-03-16T05:33:54.573Z,101173.38
2023-03-16T05:36:24.844Z,101181.56
2023-03-16T05:38:56.133Z,101185.78
2023-03-16T05:41:46.452Z,101179.22
2023-03-16T05:44:22.079Z,101188.72
2023-03-16T05:47:09.232Z,101186.97
2023-03-16T05:49:41.523Z,101193.81
2023-03-16T05:52:15.546Z,101202.28
2023-03-16T05:54:43.861Z,101204.44
2023-03-16T05:57:15.859Z,101202.22
2023-03-16T05:59:48.820Z,101206.34
2023-03-16T06:02:16.732Z,101203.34
2023-03-16T06:04:44.432Z,101219.00
2023-03-16T06:07:12.219Z,101209.25
2023-03-16T06:09:39.949Z,101219.25
2023-03-16T06:12:12.783Z,101217.31
2023-03-16T06:14:41.435Z,101228.47
2023-03-16T06:17:09.075Z,101232.81
2023-03-16T06:19:36.988Z,101234.03
2023-03-16T06:22:04.642Z,101223.84
2023-03-16T06:24:32.814Z,101226.88
2023-03-16T06:27:00.503Z,101226.88
2023-03-16T06:29:34.289Z,101237.28
2023-03-16T06:32:04.098Z,101241.75
2023-03-16T06:34:35.443Z,101257.25
2023-03-16T06:37:05.559Z,101266.66
2023-03-16T06:39:33.488Z,101248.47
2023-03-16T06:42:00.933Z,101265.47
2023-03-16T06:44:28.457Z,101266.34
2023-03-16T06:47:09.272Z,101283.41
2023-03-16T06:49:37.438Z,101279.13
2023-03-16T06:52:14.583Z,101290.03
2023-03-16T06:54:42.042Z,101288.59
2023-03-16T06:57:09.900Z,101291.19
2023-03-16T06:59:37.364Z,101289.59
2023-03-16T07:02:20.297Z,101300.09
2023-03-16T07:05:15.226Z,101307.59
2023-03-16T07:07:52.528Z,101314.19
2023-03-16T07:10:25.505Z,101317.03
2023-03-16T07:12:55.342Z,101327.63
2023-03-16T07:15:25.719Z,101316.47
2023-03-16T07:17:55.563Z,101320.94
2023-03-16T07:20:23.847Z,101321.94
2023-03-16T07:23:11.120Z,101321.09
2023-03-16T07:25:40.090Z,101323.94
2023-03-16T07:28:07.873Z,101329.97
2023-03-16T07:30:45.927Z,101339.81
2023-03-16T07:33:21.586Z,101349.56
2023-03-16T07:35:49.570Z,101343.69
2023-03-16T07:38:17.138Z,101353.19
2023-03-16T07:40:44.943Z,101352.53
2023-03-16T07:43:19.822Z,101351.34
2023-03-16T07:45:52.132Z,101365.28
2023-03-16T07:48:21.050Z,101365.97
2023-03-16T07:50:56.165Z,101368.09
2023-03-16T07:53:25.054Z,101367.63
2023-03-16T07:56:05.223Z,101367.41
2023-03-16T07:58:34.910Z,101376.94
2023-03-16T08:01:02.389Z,101375.19
2023-03-16T08:03:32.170Z,101384.03
2023-03-16T08:05:59.797Z,101384.91
2023-03-16T08:08:27.774Z,101372.56
2023-03-16T08:11:04.420Z,101382.03
2023-03-16T08:13:54.297Z,101385.31
2023-03-16T08:16:22.980Z,101376.47
2023-03-16T08:18:51.985Z,101386.44
2023-03-16T08:21:20.298Z,101385.66
2023-03-16T08:23:52.019Z,101391.03
2023-03-16T08:26:21.299Z,101405.16
2023-03-16T08:28:53.187Z,101396.75
2023-03-16T08:31:23.503Z,101403.94
2023-03-16T08:33:57.479Z,101396.13
2023-03-16T08:36:28.943Z,101399.41
2023-03-16T08:39:06.683Z,101398.34
2023-03-16T08:41:40.729Z,101398.28
2023-03-16T08:44:13.823Z,101402.06
2023-03-16T08:46:44.926Z,101410.19
2023-03-16T08:49:14.666Z,101407.00
2023-03-16T08:51:44.887Z,101407.53
2023-03-16T08:54:12.696Z,101414.09
2023-03-16T08:56:40.082Z,101418.06
2023-03-16T08:59:10.453Z,101412.84
2023-03-16T09:01:44.321Z,101423.50
2023-03-16T09:04:13.215Z,101435.78
2023-03-16T09:06:43.310Z,101438.00
2023-03-16T09:09:11.076Z,101418.97
2023-03-16T09:11:38.493Z,101441.63
2023-03-16T09:14:07.048Z,101450.00
2023-03-16T09:16:35.697Z,101444.19
2023-03-16T09:19:03.189Z,101448.94
2023-03-16T09:21:31.384Z,101441.38
2023-03-16T09:23:58.931Z,101455.34
2023-03-16T09:26:26.718Z,101451.28
2023-03-16T09:28:54.618Z,101464.38
2023-03-16T09:31:22.934Z,101460.72
2023-03-16T09:33:53.489Z,101448.91
2023-03-16T09:36:25.105Z,101458.63
2023-03-16T09:38:55.176Z,101462.63
2023-03-16T09:41:28.940Z,101464.94
2023-03-16T09:44:18.309Z,101468.84
2023-03-16T09:46:49.739Z,101464.38
2023-03-16T09:49:21.227Z,101470.47
2023-03-16T09:52:00.540Z,101467.13
2023-03-16T09:54:56.228Z,101465.31
2023-03-16T09:57:30.625Z,101466.50
2023-03-16T10:00:14.346Z,101473.59
2023-03-16T10:02:45.076Z,101481.44
2023-03-16T10:05:17.461Z,101469.56
2023-03-16T10:08:03.655Z,101477.69
2023-03-16T10:10:47.219Z,101477.22
2023-03-16T10:13:36.586Z,101476.50
2023-03-16T10:16:11.231Z,101471.06
2023-03-16T10:18:48.332Z,101479.06
2023-03-16T10:21:19.576Z,101479.56
2023-03-16T10:23:49.623Z,101477.31
2023-03-16T10:26:34.200Z,101476.28
2023-03-16T10:29:01.829Z,101478.47
2023-03-16T10:31:35.266Z,101463.91
2023-03-16T10:34:06.400Z,101471.19
2023-03-16T10:36:45.073Z,101468.38
2023-03-16T10:39:14.480Z,101473.69
2023-03-16T10:41:48.540Z,101470.22
2023-03-16T10:44:23.577Z,101474.38
2023-03-16T10:46:59.742Z,101465.88
2023-03-16T10:49:42.241Z,101473.19
2023-03-16T10:52:43.307Z,101465.88
2023-03-16T10:55:23.113Z,101472.84
2023-03-16T10:57:55.779Z,101468.13
2023-03-16T11:00:26.581Z,101468.53
2023-03-16T11:03:00.004Z,101467.44
2023-03-16T11:05:33.393Z,101454.63
2023-03-16T11:08:31.590Z,101460.50
2023-03-16T11:11:18.736Z,101465.19
2023-03-16T11:13:47.951Z,101454.84
2023-03-16T11:16:16.889Z,101460.28
2023-03-16T11:18:48.879Z,101452.59
2023-03-16T11:21:19.408Z,101452.22
2023-03-16T11:23:51.349Z,101445.63
2023-03-16T11:26:25.288Z,101434.25
2023-03-16T11:29:21.682Z,101442.66
2023-03-16T11:31:57.784Z,101443.19
2023-03-16T11:34:30.706Z,101431.00
2023-03-16T11:37:15.795Z,101443.28
2023-03-16T11:39:46.087Z,101438.34
2023-03-16T11:42:41.527Z,101429.03
2023-03-16T11:45:28.705Z,101428.25
2023-03-16T11:48:20.517Z,101428.75
2023-03-16T11:50:52.713Z,101426.63
2023-03-16T11:53:46.179Z,101426.38
2023-03-16T11:56:58.183Z,101419.72
2023-03-16T12:00:01.579Z,101413.47
2023-03-16T12:02:40.562Z,101405.84
2023-03-16T12:05:45.137Z,101418.34
2023-03-16T12:08:32.038Z,101416.75
2023-03-16T12:11:07.897Z,101411.09
2023-03-16T12:14:01.448Z,101416.34
2023-03-16T12:16:55.966Z,101412.41
2023-03-16T12:19:53.709Z,101400.81
2023-03-16T12:22:42.183Z,101392.91
2023-03-16T12:25:38.169Z,101394.53
2023-03-16T12:28:22.226Z,101389.06
2023-03-16T12:31:10.612Z,101403.13
2023-03-16T12:33:49.928Z,101397.06
2023-03-16T12:36:29.075Z,101391.13
2023-03-16T12:39:14.471Z,101380.97
2023-03-16T12:41:50.519Z,101373.72
2023-03-16T12:44:37.149Z,101372.97
2023-03-16T12:47:46.429Z,101376.66
2023-03-16T12:50:16.699Z,101366.03
2023-03-16T12:52:52.802Z,101367.53
2023-03-16T12:55:43.348Z,101372.34
2023-03-16T12:58:12.645Z,101375.50
2023-03-16T13:00:42.734Z,101370.63
2023-03-16T13:03:22.283Z,101373.28
2023-03-16T13:05:58.818Z,101368.13
2023-03-16T13:08:28.967Z,101359.75
2023-03-16T13:11:09.717Z,101360.75
2023-03-16T13:14:08.917Z,101354.53
2023-03-16T13:16:37.999Z,101367.59
2023-03-16T13:19:38.503Z,101368.00
2023-03-16T13:22:43.992Z,101368.22
2023-03-16T13:25:14.282Z,101355.19
2023-03-16T13:27:46.219Z,101346.09
2023-03-16T13:30:18.809Z,101348.91
2023-03-16T13:32:48.048Z,101350.06
2023-03-16T13:35:17.374Z,101346.53
2023-03-16T13:37:46.032Z,101350.84
2023-03-16T13:40:32.742Z,101352.06
2023-03-16T13:43:02.111Z,101344.75
2023-03-16T13:45:34.561Z,101335.91
2023-03-16T13:48:02.205Z,101332.78
2023-03-16T13:50:34.588Z,101327.75
2023-03-16T13:53:04.719Z,101342.81
2023-03-16T13:55:35.663Z,101333.63
2023-03-16T13:58:04.279Z,101334.38
2023-03-16T14:00:35.678Z,101331.66
2023-03-16T14:03:18.628Z,101325.53
2023-03-16T14:05:47.602Z,101317.97
2023-03-16T14:08:19.643Z,101326.56
2023-03-16T14:10:47.855Z,101323.59
2023-03-16T14:13:32.588Z,101324.06
2023-03-16T14:16:03.249Z,101313.31
2023-03-16T14:18:40.603Z,101310.06
2023-03-16T14:21:22.148Z,101311.78
2023-03-16T14:23:56.867Z,101314.84
2023-03-16T14:26:25.094Z,101318.16
2023-03-16T14:29:01.922Z,101314.50
2023-03-16T14:31:39.793Z,101324.06
2023-03-16T14:34:21.433Z,101315.72
2023-03-16T14:36:49.166Z,101313.91
2023-03-16T14:39:20.887Z,101319.66
2023-03-16T14:41:49.890Z,101314.75
2023-03-16T14:44:23.449Z,101308.72
2023-03-16T14:46:54.212Z,101314.81
2023-03-16T14:49:43.372Z,101309.28
2023-03-16T14:52:34.224Z,101310.09
2023-03-16T14:55:11.650Z,101311.13
2023-03-16T14:57:41.753Z,101315.47
2023-03-16T15:00:12.735Z,101332.56
2023-03-16T15:02:42.800Z,101311.03
2023-03-16T15:05:21.648Z,101324.53
2023-03-16T15:07:54.387Z,101320.50
2023-03-16T15:10:29.331Z,101325.44
2023-03-16T15:13:04.255Z,101318.66
2023-03-16T15:15:32.654Z,101322.44
2023-03-16T15:18:00.205Z,101324.72
2023-03-16T15:20:35.399Z,101320.81
2023-03-16T15:23:04.969Z,101322.59
2023-03-16T15:25:46.704Z,101318.97
2023-03-16T15:28:19.785Z,101315.47
2023-03-16T15:30:49.704Z,101323.81
2023-03-16T15:33:17.667Z,101324.53
2023-03-16T15:35:47.794Z,101312.03
2023-03-16T15:38:20.740Z,101328.22
2023-03-16T15:40:51.132Z,101316.16
2023-03-16T15:43:24.681Z,101313.97
2023-03-16T15:45:52.378Z,101316.25
2023-03-16T15:48:24.260Z,101313.47
2023-03-16T15:51:07.723Z,101326.06
2023-03-16T15:53:43.841Z,101316.34
2023-03-16T15:56:50.926Z,101317.72
2023-03-16T15:59:44.037Z,101314.16
2023-03-16T16:03:04.692Z,101322.06
2023-03-16T16:06:18.297Z,101326.84
2023-03-16T16:08:51.306Z,101323.28
2023-03-16T16:11:28.603Z,101327.50
2023-03-16T16:13:57.961Z,101330.66
2023-03-16T16:16:29.871Z,101335.16
2023-03-16T16:18:58.130Z,101330.47
2023-03-16T16:21:31.632Z,101332.22
2023-03-16T16:23:59.148Z,101330.88
2023-03-16T16:26:47.025Z,101335.25
2023-03-16T16:29:17.713Z,101336.91
2023-03-16T16:31:45.549Z,101337.28
2023-03-16T16:34:15.546Z,101340.09
2023-03-16T16:36:43.900Z,101338.19
2023-03-16T16:39:11.893Z,101341.59
2023-03-16T16:41:40.698Z,101332.25
2023-03-16T16:44:21.474Z,101329.44
2023-03-16T16:46:50.405Z,101332.25
2023-03-16T16:49:26.569Z,101341.00
2023-03-16T16:51:54.528Z,101342.69
2023-03-16T16:54:27.745Z,101347.38
2023-03-16T16:56:57.399Z,101352.66
2023-03-16T16:59:34.183Z,101350.19
2023-03-16T17:02:08.266Z,101350.06
2023-03-16T17:04:35.726Z,101359.78
2023-03-16T17:07:06.572Z,101359.75
2023-03-16T17:09:34.007Z,101365.09
2023-03-16T17:12:02.386Z,101373.09
2023-03-16T17:14:31.466Z,101374.06
2023-03-16T17:17:02.639Z,101360.88
2023-03-16T17:19:30.541Z,101376.66
2023-03-16T17:21:58.477Z,101373.22
2023-03-16T17:24:26.430Z,101379.38
2023-03-16T17:26:57.608Z,101378.50
2023-03-16T17:29:31.473Z,101388.25
2023-03-16T17:32:01.395Z,101381.19
2023-03-16T17:34:32.483Z,101384.75
2023-03-16T17:37:02.201Z,101397.03
2023-03-16T17:39:32.624Z,101392.63
2023-03-16T17:42:04.234Z,101390.91
2023-03-16T17:44:39.070Z,101390.91
2023-03-16T17:47:13.113Z,101390.00
2023-03-16T17:49:41.060Z,101394.38
2023-03-16T17:52:20.727Z,101394.41
2023-03-16T17:54:50.556Z,101382.97
2023-03-16T17:57:42.009Z,101400.50
2023-03-16T18:00:49.445Z,101397.00
2023-03-16T18:03:17.820Z,101406.63
2023-03-16T18:05:48.784Z,101408.38
2023-03-16T18:08:25.844Z,101410.16
2023-03-16T18:11:49.662Z,101419.78
2023-03-16T18:14:58.573Z,101416.16
2023-03-16T18:18:10.516Z,101424.88
2023-03-16T18:21:18.370Z,101423.16
2023-03-16T18:23:46.495Z,101427.44
2023-03-16T18:26:14.009Z,101431.78
2023-03-16T18:28:42.127Z,101431.75
2023-03-16T18:32:21.643Z,101444.13
2023-03-16T18:34:50.946Z,101445.81
2023-03-16T18:37:28.129Z,101447.47
2023-03-16T18:39:55.825Z,101446.50
2023-03-16T18:42:26.383Z,101441.25
2023-03-16T18:44:54.195Z,101456.88
2023-03-16T18:47:31.701Z,101464.00
2023-03-16T18:50:38.133Z,101461.34
2023-03-16T18:53:28.292Z,101456.84
2023-03-16T18:55:57.556Z,101463.88
2023-03-16T18:58:25.971Z,101471.72
2023-03-16T19:04:03.025Z,101468.28
2023-03-16T19:06:38.923Z,101473.56
2023-03-16T19:09:31.148Z,101475.19
2023-03-16T19:11:59.568Z,101483.06
2023-03-16T19:14:38.167Z,101471.41
2023-03-16T19:17:26.191Z,101473.94
2023-03-16T19:19:53.705Z,101474.06
2023-03-16T19:22:26.556Z,101471.28
2023-03-16T19:25:00.034Z,101480.88
2023-03-16T19:31:31.889Z,101499.34
2023-03-16T19:34:21.408Z,101488.69
2023-03-16T19:36:52.674Z,101508.06
2023-03-16T19:39:54.423Z,101505.34
2023-03-16T19:47:21.968Z,101515.63
2023-03-16T19:49:49.501Z,101513.00
2023-03-16T19:52:17.239Z,101499.63
2023-03-16T19:54:45.666Z,101510.34
2023-03-16T19:58:02.062Z,101510.09
2023-03-16T20:01:05.451Z,101517.13
2023-03-16T20:03:36.583Z,101516.25
2023-03-16T20:06:04.463Z,101521.66
2023-03-16T20:08:32.196Z,101532.13
2023-03-16T20:11:04.140Z,101531.28
2023-03-16T20:13:35.618Z,101535.56
2023-03-16T20:16:04.529Z,101544.28
2023-03-16T20:18:32.176Z,101541.88
2023-03-16T20:20:59.689Z,101552.28
2023-03-16T20:23:29.429Z,101553.13
2023-03-16T20:26:02.159Z,101547.09
2023-03-16T20:29:24.708Z,101564.69
2023-03-16T20:31:52.580Z,101565.25
2023-03-16T20:34:24.442Z,101561.03
2023-03-16T20:36:52.188Z,101559.25
2023-03-16T20:42:32.216Z,101568.78
2023-03-16T20:45:00.468Z,101568.03
2023-03-16T20:48:06.684Z,101574.84
2023-03-16T20:51:41.084Z,101579.97
2023-03-16T20:54:05.393Z,101573.78
2023-03-16T20:56:32.907Z,101580.88
2023-03-16T20:59:04.111Z,101584.19
2023-03-16T21:02:09.112Z,101575.34
2023-03-16T21:04:39.015Z,101586.84
2023-03-16T21:07:06.946Z,101586.66
2023-03-16T21:09:35.253Z,101584.69
2023-03-16T21:12:24.882Z,101590.81
2023-03-16T21:15:14.447Z,101595.22
2023-03-16T21:18:06.522Z,101595.03
2023-03-16T21:20:41.746Z,101600.34
2023-03-16T21:23:22.688Z,101589.78
2023-03-16T21:25:56.883Z,101589.84
2023-03-16T21:28:57.598Z,101571.28
2023-03-16T21:31:28.617Z,101581.91
2023-03-16T21:33:56.507Z,101587.03
2023-03-16T21:36:27.671Z,101572.56
2023-03-16T21:38:55.914Z,101579.41
2023-03-16T21:41:23.696Z,101576.09
2023-03-16T21:43:51.756Z,101578.78
2023-03-16T21:46:21.428Z,101584.84
2023-03-16T21:48:52.524Z,101584.94
2023-03-16T21:51:24.909Z,101588.38
2023-03-16T21:53:53.594Z,101586.25
2023-03-16T21:56:23.810Z,101592.59
2023-03-16T21:58:52.621Z,101591.75
2023-03-16T22:01:24.859Z,101587.22
2023-03-16T22:04:01.181Z,101594.31
2023-03-16T22:06:32.253Z,101588.16
2023-03-16T22:09:00.831Z,101599.53
2023-03-16T22:11:58.853Z,101609.81
2023-03-16T22:14:27.269Z,101599.13
2023-03-16T22:16:55.552Z,101599.28
2023-03-16T22:19:24.456Z,101613.94
2023-03-16T22:21:52.163Z,101615.84
2023-03-16T22:24:25.705Z,101601.66
2023-03-16T22:26:53.916Z,101608.94
2023-03-16T22:29:25.508Z,101616.69
2023-03-16T22:31:57.890Z,101600.00
2023-03-16T22:34:44.129Z,101606.13
2023-03-16T22:37:16.375Z,101606.06
2023-03-16T22:39:44.883Z,101600.88
2023-03-16T22:42:38.962Z,101604.53
2023-03-16T22:45:28.904Z,101593.16
2023-03-16T22:47:58.466Z,101598.34
2023-03-16T22:50:28.860Z,101606.72
2023-03-16T22:53:00.724Z,101601.31
2023-03-16T22:55:35.757Z,101600.44
2023-03-16T22:58:10.460Z,101593.09
2023-03-16T23:00:38.372Z,101610.88
2023-03-16T23:03:12.724Z,101608.19
2023-03-16T23:05:45.002Z,101616.41
2023-03-16T23:08:21.693Z,101616.44
2023-03-16T23:10:51.670Z,101621.88
2023-03-16T23:13:24.163Z,101613.31
2023-03-16T23:15:53.657Z,101614.31
2023-03-16T23:18:24.949Z,101600.50
2023-03-16T23:20:53.037Z,101602.19
2023-03-16T23:23:21.125Z,101601.97
2023-03-16T23:25:48.772Z,101607.25
2023-03-16T23:28:24.537Z,101604.50
2023-03-16T23:30:51.978Z,101609.88
2023-03-16T23:33:19.829Z,101601.81
2023-03-16T23:35:50.322Z,101602.69
2023-03-16T23:38:17.654Z,101602.56
2023-03-16T23:40:46.593Z,101614.78
2023-03-16T23:43:14.149Z,101610.00
2023-03-16T23:45:45.210Z,101604.03
2023-03-16T23:48:19.444Z,101595.03
2023-03-16T23:50:50.038Z,101603.94
2023-03-16T23:53:19.146Z,101596.69
2023-03-16T23:55:47.050Z,101592.88
2023-03-16T23:58:18.743Z,101605.50
